createdAt,value
2018-03-04T00:00:05.230Z,19.00
2018-03-04T00:02:33.507Z,18.87
2018-03-04T00:05:01.789Z,19.50
2018-03-04T00:07:30.205Z,18.50
2018-03-04T00:09:58.474Z,19.60
2018-03-04T00:12:26.774Z,16.20
2018-03-04T00:14:55.000Z,17.43
2018-03-04T00:17:24.022Z,13.07
2018-03-04T00:19:52.311Z,16.83
2018-03-04T00:22:20.534Z,16.80
2018-03-04T00:24:48.742Z,15.53
2018-03-04T00:27:16.998Z,16.10
2018-03-04T00:29:45.991Z,13.17
2018-03-04T00:32:15.094Z,16.67
2018-03-04T00:34:44.097Z,19.33
2018-03-04T00:37:12.309Z,17.20
2018-03-04T00:39:40.516Z,17.37
2018-03-04T00:42:09.600Z,17.90
2018-03-04T00:44:38.602Z,19.40
2018-03-04T00:47:06.919Z,18.13
2018-03-04T00:49:35.122Z,19.00
2018-03-04T00:52:03.445Z,16.97
2018-03-04T00:54:32.539Z,16.53
2018-03-04T00:57:01.503Z,17.00
2018-03-04T00:59:29.710Z,18.03
2018-03-04T01:01:57.974Z,18.40
2018-03-04T01:04:26.923Z,17.67
2018-03-04T01:06:55.149Z,16.47
2018-03-04T01:09:23.488Z,17.50
2018-03-04T01:11:51.698Z,17.87
2018-03-04T01:14:20.733Z,17.47
2018-03-04T01:16:48.898Z,17.20
2018-03-04T01:19:17.099Z,14.87
2018-03-04T01:21:45.308Z,17.33
2018-03-04T01:24:14.292Z,18.50
2018-03-04T01:26:43.299Z,19.90
2018-03-04T01:29:12.332Z,19.47
2018-03-04T01:31:40.573Z,17.37
2018-03-04T01:34:08.795Z,16.60
2018-03-04T01:36:37.007Z,18.07
2018-03-04T01:39:06.000Z,18.00
2018-03-04T01:41:34.996Z,18.67
2018-03-04T01:44:03.225Z,18.77
2018-03-04T01:46:31.485Z,19.03
2018-03-04T01:48:59.777Z,19.50
2018-03-04T01:51:45.823Z,19.60
2018-03-04T01:54:13.986Z,19.20
2018-03-04T01:56:42.182Z,19.73
2018-03-04T01:59:10.421Z,16.33
2018-03-04T02:01:39.421Z,17.17
2018-03-04T02:04:07.726Z,18.03
2018-03-04T02:06:35.963Z,16.70
2018-03-04T02:09:05.089Z,19.17
2018-03-04T02:11:33.402Z,15.40
2018-03-04T02:14:01.599Z,19.33
2018-03-04T02:16:29.810Z,21.07
2018-03-04T02:18:58.143Z,18.80
2018-03-04T02:21:26.417Z,21.40
2018-03-04T02:23:54.671Z,17.63
2018-03-04T02:26:22.857Z,18.50
2018-03-04T02:28:51.110Z,19.60
2018-03-04T02:31:19.378Z,20.80
2018-03-04T02:33:47.554Z,18.87
2018-03-04T02:36:15.827Z,19.87
2018-03-04T02:38:44.034Z,18.97
2018-03-04T02:41:12.210Z,19.97
2018-03-04T02:43:40.399Z,18.73
2018-03-04T02:46:08.646Z,18.80
2018-03-04T02:48:36.838Z,19.50
2018-03-04T02:51:05.044Z,20.13
2018-03-04T02:53:33.222Z,16.83
2018-03-04T02:56:01.512Z,17.80
2018-03-04T02:58:29.732Z,11.13
2018-03-04T03:00:57.939Z,18.40
2018-03-04T03:03:26.178Z,19.97
2018-03-04T03:05:54.361Z,21.03
2018-03-04T03:08:23.344Z,18.80
2018-03-04T03:10:52.294Z,20.33
2018-03-04T03:13:20.475Z,20.17
2018-03-04T03:15:48.692Z,22.03
2018-03-04T03:18:17.670Z,20.53
2018-03-04T03:20:46.629Z,18.97
2018-03-04T03:23:14.833Z,21.37
2018-03-04T03:25:43.100Z,21.43
2018-03-04T03:28:11.320Z,19.33
2018-03-04T03:30:39.587Z,22.03
2018-03-04T03:33:07.760Z,19.60
2018-03-04T03:35:35.964Z,21.90
2018-03-04T03:38:04.153Z,21.47
2018-03-04T03:40:32.390Z,20.27
2018-03-04T03:43:00.589Z,21.70
2018-03-04T03:45:28.789Z,23.57
2018-03-04T03:47:56.974Z,21.03
2018-03-04T03:50:25.188Z,17.40
2018-03-04T03:52:53.439Z,21.27
2018-03-04T03:55:22.493Z,21.27
2018-03-04T03:57:50.762Z,21.73
2018-03-04T04:00:18.949Z,20.90
2018-03-04T04:02:47.137Z,21.33
2018-03-04T04:05:15.378Z,17.93
2018-03-04T04:07:43.583Z,21.00
2018-03-04T04:10:11.957Z,20.50
2018-03-04T04:12:40.178Z,20.30
2018-03-04T04:15:08.435Z,24.90
2018-03-04T04:17:36.643Z,21.37
2018-03-04T04:20:04.885Z,22.43
2018-03-04T04:22:33.087Z,23.53
2018-03-04T04:25:01.367Z,24.47
2018-03-04T04:27:29.674Z,24.00
2018-03-04T04:29:58.080Z,20.70
2018-03-04T04:32:26.316Z,20.70
2018-03-04T04:34:54.514Z,19.33
2018-03-04T04:37:22.734Z,23.77
2018-03-04T04:39:51.173Z,24.00
2018-03-04T04:42:19.383Z,24.03
2018-03-04T04:44:47.590Z,21.20
2018-03-04T04:47:15.770Z,26.20
2018-03-04T04:49:44.720Z,22.80
2018-03-04T04:52:12.939Z,24.63
2018-03-04T04:54:41.213Z,24.97
2018-03-04T04:57:10.236Z,24.40
2018-03-04T04:59:39.292Z,24.27
2018-03-04T05:02:07.546Z,25.03
2018-03-04T05:04:35.814Z,26.10
2018-03-04T05:07:04.015Z,27.40
2018-03-04T05:09:32.212Z,24.57
2018-03-04T05:12:00.446Z,26.40
2018-03-04T05:14:28.648Z,21.03
2018-03-04T05:16:56.869Z,25.50
2018-03-04T05:19:25.096Z,24.23
2018-03-04T05:21:53.302Z,22.93
2018-03-04T05:24:22.251Z,21.83
2018-03-04T05:26:50.508Z,25.07
2018-03-04T05:29:18.724Z,22.63
2018-03-04T05:31:46.962Z,22.93
2018-03-04T05:34:15.210Z,17.70
2018-03-04T05:36:43.389Z,28.80
2018-03-04T05:39:11.588Z,24.00
2018-03-04T05:41:39.837Z,25.30
2018-03-04T05:44:08.091Z,25.60
2018-03-04T05:46:37.055Z,22.93
2018-03-04T05:49:05.249Z,15.90
2018-03-04T05:51:33.450Z,23.80
2018-03-04T05:54:01.700Z,21.67
2018-03-04T05:56:30.644Z,24.90
2018-03-04T05:58:58.860Z,24.27
2018-03-04T06:01:27.073Z,23.60
2018-03-04T06:03:56.175Z,24.47
2018-03-04T06:06:25.138Z,25.77
2018-03-04T06:08:53.426Z,27.20
2018-03-04T06:11:21.690Z,27.00
2018-03-04T06:13:50.064Z,24.50
2018-03-04T06:16:18.246Z,25.57
2018-03-04T06:18:46.532Z,21.43
2018-03-04T06:21:14.749Z,25.93
2018-03-04T06:23:43.026Z,24.07
2018-03-04T06:26:11.438Z,24.67
2018-03-04T06:28:40.443Z,25.67
2018-03-04T06:31:08.698Z,24.67
2018-03-04T06:33:37.674Z,25.03
2018-03-04T06:36:06.663Z,23.87
2018-03-04T06:38:34.856Z,25.87
2018-03-04T06:41:03.924Z,24.43
2018-03-04T06:43:32.241Z,26.00
2018-03-04T06:46:01.286Z,24.93
2018-03-04T06:48:29.454Z,21.70
2018-03-04T06:50:57.650Z,22.70
2018-03-04T06:53:25.876Z,26.10
2018-03-04T06:55:54.196Z,27.07
2018-03-04T06:58:22.390Z,18.63
2018-03-04T07:00:50.667Z,26.07
2018-03-04T07:03:18.877Z,26.70
2018-03-04T07:05:47.074Z,25.87
2018-03-04T07:08:15.298Z,23.17
2018-03-04T07:10:43.619Z,23.10
2018-03-04T07:13:12.542Z,27.03
2018-03-04T07:15:41.498Z,26.30
2018-03-04T07:18:09.789Z,26.70
2018-03-04T07:20:38.057Z,26.57
2018-03-04T07:23:06.423Z,23.87
2018-03-04T07:25:34.813Z,26.13
2018-03-04T07:28:03.099Z,25.00
2018-03-04T07:30:31.494Z,23.97
2018-03-04T07:33:00.504Z,25.70
2018-03-04T07:35:28.776Z,27.30
2018-03-04T07:37:56.996Z,27.67
2018-03-04T07:40:25.299Z,24.77
2018-03-04T07:42:54.376Z,28.60
2018-03-04T07:45:22.596Z,24.07
2018-03-04T07:47:51.580Z,24.33
2018-03-04T07:50:20.532Z,28.43
2018-03-04T07:52:48.721Z,27.07
2018-03-04T07:55:16.967Z,26.77
2018-03-04T07:57:45.151Z,24.73
2018-03-04T08:00:13.375Z,27.00
2018-03-04T08:02:41.556Z,27.93
2018-03-04T08:05:09.843Z,26.43
2018-03-04T08:07:38.093Z,26.33
2018-03-04T08:10:07.113Z,27.57
2018-03-04T08:12:35.395Z,24.33
2018-03-04T08:15:04.371Z,29.53
2018-03-04T08:17:32.567Z,28.30
2018-03-04T08:20:00.803Z,24.70
2018-03-04T08:22:29.494Z,25.43
2018-03-04T08:28:22.379Z,29.70
2018-03-04T08:30:50.579Z,27.70
2018-03-04T08:33:19.639Z,30.67
2018-03-04T08:35:47.857Z,27.20
2018-03-04T08:38:16.140Z,30.63
2018-03-04T08:40:45.251Z,29.40
2018-03-04T08:43:14.428Z,26.53
2018-03-04T08:45:43.182Z,27.07
2018-03-04T08:48:12.381Z,31.00
2018-03-04T08:50:40.630Z,30.07
2018-03-04T08:53:08.809Z,30.47
2018-03-04T08:55:37.048Z,28.37
2018-03-04T08:58:06.002Z,31.07
2018-03-04T09:00:35.138Z,29.97
2018-03-04T09:03:03.498Z,32.20
2018-03-04T09:05:31.690Z,29.50
2018-03-04T09:07:59.929Z,26.73
2018-03-04T09:10:28.224Z,32.23
2018-03-04T09:12:56.561Z,30.77
2018-03-04T09:15:24.830Z,30.33
2018-03-04T09:17:53.083Z,32.67
2018-03-04T09:20:22.298Z,29.47
2018-03-04T09:22:50.612Z,30.43
2018-03-04T09:25:18.920Z,30.47
2018-03-04T09:27:48.059Z,32.00
2018-03-04T09:30:16.239Z,29.70
2018-03-04T09:32:44.456Z,33.20
2018-03-04T09:35:13.662Z,27.00
2018-03-04T09:37:42.642Z,33.50
2018-03-04T09:40:12.152Z,32.37
2018-03-04T09:42:41.346Z,33.57
2018-03-04T09:45:09.553Z,34.50
2018-03-04T09:47:37.997Z,29.57
2018-03-04T09:50:06.225Z,33.70
2018-03-04T09:52:34.607Z,30.23
2018-03-04T09:55:03.083Z,34.83
2018-03-04T09:57:31.332Z,35.73
2018-03-04T09:59:59.659Z,38.63
2018-03-04T10:02:28.716Z,34.27
2018-03-04T10:04:57.103Z,35.77
2018-03-04T10:07:25.337Z,38.10
2018-03-04T10:09:53.621Z,32.83
2018-03-04T10:12:22.758Z,34.70
2018-03-04T10:14:50.966Z,35.70
2018-03-04T10:17:19.278Z,35.03
2018-03-04T10:19:47.595Z,36.73
2018-03-04T10:22:15.804Z,33.97
2018-03-04T10:24:44.031Z,35.40
2018-03-04T10:27:12.316Z,36.67
2018-03-04T10:29:40.708Z,37.40
2018-03-04T10:32:09.004Z,38.37
2018-03-04T10:34:37.358Z,34.70
2018-03-04T10:37:05.634Z,37.27
2018-03-04T10:39:33.902Z,35.30
2018-03-04T10:42:02.152Z,35.83
2018-03-04T10:44:30.513Z,39.27
2018-03-04T10:46:58.940Z,36.90
2018-03-04T10:49:27.166Z,36.90
2018-03-04T10:51:55.369Z,38.40
2018-03-04T10:54:23.600Z,37.67
2018-03-04T10:56:51.843Z,28.57
2018-03-04T10:59:20.147Z,35.73
2018-03-04T11:01:52.410Z,34.00
2018-03-04T11:04:20.595Z,36.43
2018-03-04T11:06:48.907Z,35.77
2018-03-04T11:09:17.340Z,37.00
2018-03-04T11:11:45.622Z,38.70
2018-03-04T11:14:14.685Z,36.97
2018-03-04T11:16:43.741Z,36.77
2018-03-04T11:19:12.059Z,36.47
2018-03-04T11:21:41.571Z,36.20
2018-03-04T11:24:10.575Z,37.73
2018-03-04T11:26:40.354Z,32.30
2018-03-04T11:32:01.883Z,40.40
2018-03-04T11:34:35.362Z,37.23
2018-03-04T11:37:04.631Z,34.53
2018-03-04T11:39:35.447Z,38.83
2018-03-04T11:42:03.917Z,38.87
2018-03-04T11:44:32.221Z,38.13
2018-03-04T11:47:00.465Z,40.90
2018-03-04T11:49:28.828Z,38.93
2018-03-04T11:51:57.050Z,39.33
2018-03-04T11:54:25.378Z,37.67
2018-03-04T11:56:53.685Z,37.40
2018-03-04T11:59:21.928Z,39.07
2018-03-04T12:01:50.140Z,37.77
2018-03-04T12:04:19.171Z,39.57
2018-03-04T12:06:47.421Z,40.13
2018-03-04T12:09:15.632Z,40.83
2018-03-04T12:11:43.880Z,37.87
2018-03-04T12:14:12.183Z,39.03
2018-03-04T12:16:40.372Z,39.80
2018-03-04T12:19:08.670Z,35.93
2018-03-04T12:21:37.075Z,34.20
2018-03-04T12:24:05.484Z,38.70
2018-03-04T12:26:34.483Z,42.33
2018-03-04T12:29:02.786Z,39.00
2018-03-04T12:31:31.231Z,31.47
2018-03-04T12:33:59.488Z,40.33
2018-03-04T12:36:27.736Z,34.00
2018-03-04T12:38:56.721Z,38.80
2018-03-04T12:41:24.985Z,39.40
2018-03-04T12:43:53.272Z,38.40
2018-03-04T12:46:21.566Z,42.57
2018-03-04T12:48:49.803Z,39.60
2018-03-04T12:51:18.138Z,38.20
2018-03-04T12:53:46.603Z,37.43
2018-03-04T12:56:14.821Z,39.60
2018-03-04T12:58:43.216Z,40.97
2018-03-04T13:01:12.295Z,39.17
2018-03-04T13:03:40.501Z,40.20
2018-03-04T13:06:08.928Z,42.83
2018-03-04T13:08:37.121Z,39.20
2018-03-04T13:11:05.311Z,42.47
2018-03-04T13:13:33.607Z,39.40
2018-03-04T13:16:02.114Z,40.23
2018-03-04T13:18:30.397Z,38.97
2018-03-04T13:20:58.682Z,37.83
2018-03-04T13:23:26.926Z,41.43
2018-03-04T13:25:55.161Z,44.20
2018-03-04T13:28:23.341Z,41.20
2018-03-04T13:30:51.553Z,38.43
2018-03-04T13:33:19.883Z,43.43
2018-03-04T13:35:48.078Z,39.53
2018-03-04T13:38:17.127Z,41.73
2018-03-04T13:40:45.404Z,40.63
2018-03-04T13:43:13.668Z,42.27
2018-03-04T13:45:41.963Z,40.60
2018-03-04T13:48:10.197Z,42.37
2018-03-04T13:50:38.512Z,40.27
2018-03-04T13:53:06.733Z,41.80
2018-03-04T13:55:35.712Z,43.13
2018-03-04T13:58:04.014Z,39.77
2018-03-04T14:00:32.293Z,39.90
2018-03-04T14:03:00.539Z,41.40
2018-03-04T14:05:28.762Z,41.73
2018-03-04T14:07:57.095Z,41.70
2018-03-04T14:10:26.145Z,42.53
2018-03-04T14:12:54.463Z,43.30
2018-03-04T14:15:23.561Z,43.00
2018-03-04T14:17:51.786Z,42.37
2018-03-04T14:20:20.108Z,42.27
2018-03-04T14:22:48.364Z,40.57
2018-03-04T14:25:17.447Z,44.07
2018-03-04T14:27:45.776Z,43.30
2018-03-04T14:30:14.117Z,36.50
2018-03-04T14:32:42.402Z,41.93
2018-03-04T14:35:11.354Z,43.77
2018-03-04T14:37:39.541Z,42.67
2018-03-04T14:40:07.774Z,40.20
2018-03-04T14:42:36.002Z,43.27
2018-03-04T14:45:04.220Z,41.97
2018-03-04T14:47:32.460Z,41.87
2018-03-04T14:50:01.409Z,43.17
2018-03-04T14:52:29.602Z,41.17
2018-03-04T14:54:57.843Z,41.80
2018-03-04T14:57:26.102Z,40.90
2018-03-04T14:59:54.327Z,42.97
2018-03-04T15:02:22.532Z,41.40
2018-03-04T15:04:51.559Z,42.27
2018-03-04T15:07:19.753Z,39.77
2018-03-04T15:09:48.059Z,44.40
2018-03-04T15:12:16.323Z,42.50
2018-03-04T15:14:44.661Z,42.47
2018-03-04T15:17:12.987Z,41.77
2018-03-04T15:19:41.252Z,42.47
2018-03-04T15:22:09.639Z,41.77
2018-03-04T15:24:38.454Z,42.53
2018-03-04T15:27:06.726Z,43.80
2018-03-04T15:29:35.025Z,41.53
2018-03-04T15:32:03.634Z,41.53
2018-03-04T15:34:31.958Z,43.93
2018-03-04T15:37:00.993Z,42.27
2018-03-04T15:39:29.189Z,45.47
2018-03-04T15:41:57.377Z,43.23
2018-03-04T15:44:25.660Z,43.63
2018-03-04T15:46:53.872Z,44.80
2018-03-04T15:49:22.065Z,43.40
2018-03-04T15:51:50.345Z,43.57
2018-03-04T15:54:18.899Z,41.97
2018-03-04T15:56:47.152Z,44.10
2018-03-04T15:59:16.128Z,41.50
2018-03-04T16:01:45.128Z,44.37
2018-03-04T16:04:14.136Z,40.00
2018-03-04T16:06:43.196Z,42.33
2018-03-04T16:09:11.477Z,42.50
2018-03-04T16:11:39.763Z,44.40
2018-03-04T16:14:08.044Z,42.10
2018-03-04T16:16:37.040Z,44.30
2018-03-04T16:19:05.259Z,44.47
2018-03-04T16:21:33.732Z,37.50
2018-03-04T16:24:01.979Z,42.60
2018-03-04T16:26:30.298Z,39.27
2018-03-04T16:28:58.515Z,43.90
2018-03-04T16:31:27.507Z,44.57
2018-03-04T16:33:56.497Z,43.53
2018-03-04T16:36:25.644Z,43.90
2018-03-04T16:38:54.149Z,42.20
2018-03-04T16:41:22.355Z,40.10
2018-03-04T16:43:50.567Z,42.10
2018-03-04T16:46:18.873Z,42.47
2018-03-04T16:48:47.048Z,43.87
2018-03-04T16:51:15.503Z,42.90
2018-03-04T16:53:43.794Z,40.27
2018-03-04T16:56:12.061Z,43.07
2018-03-04T16:58:40.326Z,41.07
2018-03-04T17:01:08.519Z,46.03
2018-03-04T17:03:36.794Z,43.77
2018-03-04T17:06:05.111Z,42.57
2018-03-04T17:08:34.106Z,42.00
2018-03-04T17:11:02.312Z,40.80
2018-03-04T17:13:30.568Z,44.30
2018-03-04T17:15:58.812Z,43.67
2018-03-04T17:18:27.011Z,43.43
2018-03-04T17:20:55.207Z,43.00
2018-03-04T17:23:23.418Z,42.20
2018-03-04T17:25:51.630Z,43.40
2018-03-04T17:28:19.809Z,42.47
2018-03-04T17:30:48.128Z,42.50
2018-03-04T17:33:16.338Z,42.97
2018-03-04T17:35:45.306Z,41.97
2018-03-04T17:38:13.618Z,42.40
2018-03-04T17:40:41.834Z,40.80
2018-03-04T17:43:10.299Z,42.90
2018-03-04T17:45:38.637Z,40.43
2018-03-04T17:48:07.015Z,40.23
2018-03-04T17:50:35.279Z,42.93
2018-03-04T17:53:04.283Z,45.40
2018-03-04T17:55:32.661Z,42.10
2018-03-04T17:58:00.924Z,46.90
2018-03-04T18:00:29.135Z,44.13
2018-03-04T18:02:57.337Z,45.33
2018-03-04T18:05:25.583Z,43.17
2018-03-04T18:07:53.766Z,45.33
2018-03-04T18:10:22.017Z,43.77
2018-03-04T18:12:50.202Z,46.90
2018-03-04T18:15:18.508Z,44.30
2018-03-04T18:17:46.735Z,45.23
2018-03-04T18:20:14.998Z,43.77
2018-03-04T18:22:43.246Z,44.60
2018-03-04T18:25:11.418Z,45.60
2018-03-04T18:27:39.790Z,43.63
2018-03-04T18:30:08.020Z,42.27
2018-03-04T18:32:36.259Z,41.70
2018-03-04T18:35:04.512Z,43.83
2018-03-04T18:37:32.848Z,45.40
2018-03-04T18:40:01.624Z,43.53
2018-03-04T18:42:29.870Z,41.47
2018-03-04T18:44:58.169Z,44.77
2018-03-04T18:47:27.175Z,44.97
2018-03-04T18:49:55.552Z,43.63
2018-03-04T18:52:24.719Z,40.63
2018-03-04T18:54:53.691Z,42.53
2018-03-04T18:57:21.905Z,41.57
2018-03-04T18:59:50.119Z,44.77
2018-03-04T19:02:18.503Z,42.80
2018-03-04T19:04:46.792Z,46.75
2018-03-04T19:07:15.026Z,51.97
2018-03-04T19:09:43.499Z,47.77
2018-03-04T19:12:11.862Z,46.23
2018-03-04T19:14:40.200Z,46.00
2018-03-04T19:17:08.404Z,44.90
2018-03-04T19:19:37.372Z,44.73
2018-03-04T19:22:05.584Z,44.67
2018-03-04T19:24:33.799Z,46.10
2018-03-04T19:27:02.090Z,44.33
2018-03-04T19:29:30.304Z,45.83
2018-03-04T19:31:59.428Z,45.53
2018-03-04T19:34:29.219Z,43.30
2018-03-04T19:36:57.453Z,43.27
2018-03-04T19:39:26.511Z,43.57
2018-03-04T19:41:54.777Z,44.67
2018-03-04T19:44:23.067Z,47.83
2018-03-04T19:46:51.328Z,45.20
2018-03-04T19:49:19.557Z,41.77
2018-03-04T19:51:48.603Z,42.13
2018-03-04T19:54:16.967Z,40.57
2018-03-04T19:56:45.222Z,40.80
2018-03-04T19:59:13.532Z,39.67
2018-03-04T20:01:41.759Z,40.90
2018-03-04T20:04:10.914Z,40.20
2018-03-04T20:06:40.038Z,41.17
2018-03-04T20:09:08.319Z,42.07
2018-03-04T20:11:37.477Z,41.90
2018-03-04T20:14:06.551Z,44.10
2018-03-04T20:16:34.708Z,42.57
2018-03-04T20:19:03.017Z,40.10
2018-03-04T20:21:31.263Z,40.70
2018-03-04T20:23:59.524Z,41.23
2018-03-04T20:26:28.622Z,39.77
2018-03-04T20:28:57.679Z,41.63
2018-03-04T20:31:26.003Z,41.93
2018-03-04T20:33:54.295Z,39.17
2018-03-04T20:36:22.715Z,39.53
2018-03-04T20:38:51.741Z,44.03
2018-03-04T20:41:20.019Z,40.40
2018-03-04T20:43:48.296Z,42.30
2018-03-04T20:46:16.603Z,41.40
2018-03-04T20:48:45.026Z,44.33
2018-03-04T20:51:13.287Z,40.53
2018-03-04T20:53:41.599Z,41.90
2018-03-04T20:56:09.823Z,40.50
2018-03-04T20:58:38.124Z,40.07
2018-03-04T21:01:06.489Z,42.10
2018-03-04T21:03:34.838Z,42.90
2018-03-04T21:06:03.098Z,42.83
2018-03-04T21:08:31.360Z,42.73
2018-03-04T21:10:59.928Z,39.93
2018-03-04T21:13:29.143Z,39.07
2018-03-04T21:15:57.544Z,39.40
2018-03-04T21:18:25.835Z,41.07
2018-03-04T21:20:54.173Z,40.10
2018-03-04T21:23:22.514Z,37.70
2018-03-04T21:25:50.835Z,39.90
2018-03-04T21:28:19.167Z,41.37
2018-03-04T21:30:48.181Z,38.97
2018-03-04T21:33:16.412Z,40.17
2018-03-04T21:35:44.824Z,38.60
2018-03-04T21:38:13.876Z,41.80
2018-03-04T21:40:42.283Z,41.13
2018-03-04T21:43:10.627Z,38.93
2018-03-04T21:45:38.932Z,39.57
2018-03-04T21:48:07.300Z,40.90
2018-03-04T21:50:35.511Z,37.97
2018-03-04T21:53:04.770Z,41.50
2018-03-04T21:55:32.987Z,43.13
2018-03-04T21:58:01.348Z,38.97
2018-03-04T22:00:30.517Z,40.50
2018-03-04T22:02:58.773Z,42.50
2018-03-04T22:05:27.040Z,39.83
2018-03-04T22:07:55.274Z,42.33
2018-03-04T22:10:24.365Z,39.67
2018-03-04T22:12:52.564Z,40.80
2018-03-04T22:15:20.754Z,40.00
2018-03-04T22:17:49.454Z,39.00
2018-03-04T22:20:17.764Z,37.13
2018-03-04T22:22:46.746Z,39.87
2018-03-04T22:25:15.028Z,40.47
2018-03-04T22:27:43.310Z,38.97
2018-03-04T22:30:12.317Z,42.17
2018-03-04T22:32:40.536Z,43.30
2018-03-04T22:35:09.242Z,39.90
2018-03-04T22:37:40.296Z,41.00
2018-03-04T22:40:09.526Z,40.27
2018-03-04T22:42:38.434Z,40.30
2018-03-04T22:45:06.658Z,37.10
2018-03-04T22:47:35.668Z,43.03
2018-03-04T22:50:04.705Z,40.80
2018-03-04T22:52:33.773Z,41.50
2018-03-04T22:55:02.030Z,41.17
2018-03-04T22:57:31.070Z,39.57
2018-03-04T22:59:59.388Z,36.90
2018-03-04T23:02:28.410Z,40.67
2018-03-04T23:04:56.625Z,41.17
2018-03-04T23:07:24.821Z,42.73
2018-03-04T23:09:53.026Z,39.07
2018-03-04T23:12:21.229Z,40.37
2018-03-04T23:14:49.658Z,40.13
2018-03-04T23:17:19.558Z,39.10
2018-03-04T23:19:47.778Z,41.47
2018-03-04T23:22:16.053Z,42.10
2018-03-04T23:24:44.295Z,41.17
2018-03-04T23:27:13.282Z,40.40
2018-03-04T23:29:41.478Z,39.10
2018-03-04T23:32:10.370Z,40.77
2018-03-04T23:34:38.555Z,41.47
2018-03-04T23:37:06.741Z,42.20
2018-03-04T23:39:34.950Z,42.67
2018-03-04T23:42:03.181Z,41.00
2018-03-04T23:44:31.417Z,38.57
2018-03-04T23:47:00.390Z,40.40
2018-03-04T23:49:28.627Z,40.80
2018-03-04T23:51:56.856Z,40.17
2018-03-04T23:54:25.049Z,38.33
2018-03-04T23:56:53.283Z,41.30
2018-03-04T23:59:21.537Z,39.60
